sensor_id;sensor_type;location;lat;lon;timestamp;pressure;altitude;pressure_sealevel;temperature;humidity
35307;BME280;21420;52.196;21.416;2024-02-04T00:01:42;99547.95;;;6.60;70.60
35307;BME280;21420;52.196;21.416;2024-02-04T00:04:09;99555.20;;;6.56;70.54
35307;BME280;21420;52.196;21.416;2024-02-04T00:06:36;99547.90;;;6.51;70.54
35307;BME280;21420;52.196;21.416;2024-02-04T00:09:03;99546.89;;;6.47;70.53
35307;BME280;21420;52.196;21.416;2024-02-04T00:11:33;99548.91;;;6.43;70.55
35307;BME280;21420;52.196;21.416;2024-02-04T00:14:01;99534.80;;;6.40;70.55
35307;BME280;21420;52.196;21.416;2024-02-04T00:16:29;99543.02;;;6.41;70.57
35307;BME280;21420;52.196;21.416;2024-02-04T00:18:56;99540.77;;;6.39;70.73
35307;BME280;21420;52.196;21.416;2024-02-04T00:21:22;99543.03;;;6.34;70.50
35307;BME280;21420;52.196;21.416;2024-02-04T00:23:50;99545.98;;;6.26;70.42
35307;BME280;21420;52.196;21.416;2024-02-04T00:26:16;99533.70;;;6.23;70.42
35307;BME280;21420;52.196;21.416;2024-02-04T00:28:43;99535.39;;;6.21;70.37
35307;BME280;21420;52.196;21.416;2024-02-04T00:31:10;99531.80;;;6.19;70.44
35307;BME280;21420;52.196;21.416;2024-02-04T00:33:37;99521.78;;;6.15;70.46
35307;BME280;21420;52.196;21.416;2024-02-04T00:36:05;99501.92;;;6.14;70.62
35307;BME280;21420;52.196;21.416;2024-02-04T00:38:31;99511.45;;;6.15;70.68
35307;BME280;21420;52.196;21.416;2024-02-04T00:40:58;99514.48;;;6.13;70.58
35307;BME280;21420;52.196;21.416;2024-02-04T00:43:25;99505.28;;;6.09;70.39
35307;BME280;21420;52.196;21.416;2024-02-04T00:46:07;99508.38;;;6.10;70.53
35307;BME280;21420;52.196;21.416;2024-02-04T00:48:37;99511.39;;;6.08;70.48
35307;BME280;21420;52.196;21.416;2024-02-04T00:51:04;99516.73;;;6.03;70.43
35307;BME280;21420;52.196;21.416;2024-02-04T00:53:31;99517.63;;;6.00;70.39
35307;BME280;21420;52.196;21.416;2024-02-04T00:56:04;99519.83;;;6.01;70.47
35307;BME280;21420;52.196;21.416;2024-02-04T00:58:31;99522.25;;;6.05;70.62
35307;BME280;21420;52.196;21.416;2024-02-04T01:00:58;99515.41;;;6.03;70.34
35307;BME280;21420;52.196;21.416;2024-02-04T01:03:25;99519.39;;;6.00;70.33
35307;BME280;21420;52.196;21.416;2024-02-04T01:05:51;99524.54;;;5.99;70.49
35307;BME280;21420;52.196;21.416;2024-02-04T01:08:18;99531.13;;;5.98;70.54
35307;BME280;21420;52.196;21.416;2024-02-04T01:10:45;99529.23;;;6.00;70.45
35307;BME280;21420;52.196;21.416;2024-02-04T01:13:12;99543.02;;;5.99;70.48
35307;BME280;21420;52.196;21.416;2024-02-04T01:15:38;99537.42;;;5.93;70.40
35307;BME280;21420;52.196;21.416;2024-02-04T01:18:05;99531.38;;;5.92;70.36
35307;BME280;21420;52.196;21.416;2024-02-04T01:20:32;99530.29;;;5.92;70.36
35307;BME280;21420;52.196;21.416;2024-02-04T01:22:59;99524.14;;;5.94;70.44
35307;BME280;21420;52.196;21.416;2024-02-04T01:25:26;99533.68;;;5.91;70.45
35307;BME280;21420;52.196;21.416;2024-02-04T01:27:52;99529.98;;;5.88;70.45
35307;BME280;21420;52.196;21.416;2024-02-04T01:30:21;99531.78;;;5.87;70.28
35307;BME280;21420;52.196;21.416;2024-02-04T01:32:47;99540.44;;;5.88;70.38
35307;BME280;21420;52.196;21.416;2024-02-04T01:35:15;99537.98;;;5.86;70.49
35307;BME280;21420;52.196;21.416;2024-02-04T01:37:42;99543.00;;;5.90;70.60
35307;BME280;21420;52.196;21.416;2024-02-04T01:40:15;99546.77;;;5.95;70.62
35307;BME280;21420;52.196;21.416;2024-02-04T01:42:42;99550.40;;;5.97;70.58
35307;BME280;21420;52.196;21.416;2024-02-04T01:45:10;99551.47;;;5.96;70.49
35307;BME280;21420;52.196;21.416;2024-02-04T01:47:37;99551.62;;;5.93;70.44
35307;BME280;21420;52.196;21.416;2024-02-04T01:50:06;99541.70;;;5.89;70.38
35307;BME280;21420;52.196;21.416;2024-02-04T01:52:38;99546.41;;;5.88;70.40
35307;BME280;21420;52.196;21.416;2024-02-04T01:55:07;99542.81;;;5.87;70.41
35307;BME280;21420;52.196;21.416;2024-02-04T01:57:34;99539.67;;;5.86;70.45
35307;BME280;21420;52.196;21.416;2024-02-04T02:00:04;99549.48;;;5.94;70.60
35307;BME280;21420;52.196;21.416;2024-02-04T02:02:32;99545.74;;;5.95;70.68
35307;BME280;21420;52.196;21.416;2024-02-04T02:05:00;99535.83;;;5.96;70.60
35307;BME280;21420;52.196;21.416;2024-02-04T02:07:28;99524.07;;;5.95;70.56
35307;BME280;21420;52.196;21.416;2024-02-04T02:09:55;99522.81;;;5.93;70.43
35307;BME280;21420;52.196;21.416;2024-02-04T02:15:01;99520.45;;;5.89;70.32
35307;BME280;21420;52.196;21.416;2024-02-04T02:17:39;99520.06;;;5.87;70.50
35307;BME280;21420;52.196;21.416;2024-02-04T02:20:13;99530.75;;;5.88;70.56
35307;BME280;21420;52.196;21.416;2024-02-04T02:25:20;99529.35;;;5.86;70.56
35307;BME280;21420;52.196;21.416;2024-02-04T02:27:47;99531.73;;;5.89;70.49
35307;BME280;21420;52.196;21.416;2024-02-04T02:30:16;99529.88;;;5.88;70.69
35307;BME280;21420;52.196;21.416;2024-02-04T02:32:48;99532.27;;;5.85;70.64
35307;BME280;21420;52.196;21.416;2024-02-04T02:35:16;99532.23;;;5.84;70.52
35307;BME280;21420;52.196;21.416;2024-02-04T02:40:45;99535.73;;;5.80;70.64
35307;BME280;21420;52.196;21.416;2024-02-04T02:43:11;99532.77;;;5.77;70.54
35307;BME280;21420;52.196;21.416;2024-02-04T02:45:42;99537.34;;;5.73;70.61
35307;BME280;21420;52.196;21.416;2024-02-04T02:48:10;99527.24;;;5.71;70.60
35307;BME280;21420;52.196;21.416;2024-02-04T02:50:38;99529.61;;;5.72;70.69
35307;BME280;21420;52.196;21.416;2024-02-04T02:53:05;99528.33;;;5.73;70.62
35307;BME280;21420;52.196;21.416;2024-02-04T02:55:31;99523.81;;;5.69;70.63
35307;BME280;21420;52.196;21.416;2024-02-04T02:57:58;99531.16;;;5.70;70.73
35307;BME280;21420;52.196;21.416;2024-02-04T03:00:25;99525.08;;;5.75;70.90
35307;BME280;21420;52.196;21.416;2024-02-04T03:02:52;99534.03;;;5.79;70.77
35307;BME280;21420;52.196;21.416;2024-02-04T03:05:19;99535.92;;;5.78;70.80
35307;BME280;21420;52.196;21.416;2024-02-04T03:07:45;99529.81;;;5.78;70.74
35307;BME280;21420;52.196;21.416;2024-02-04T03:10:12;99526.69;;;5.78;70.70
35307;BME280;21420;52.196;21.416;2024-02-04T03:12:39;99529.75;;;5.79;70.76
35307;BME280;21420;52.196;21.416;2024-02-04T03:15:06;99527.64;;;5.78;70.63
35307;BME280;21420;52.196;21.416;2024-02-04T03:17:37;99530.64;;;5.80;70.76
35307;BME280;21420;52.196;21.416;2024-02-04T03:20:04;99536.45;;;5.83;71.03
35307;BME280;21420;52.196;21.416;2024-02-04T03:22:31;99531.79;;;5.85;71.01
35307;BME280;21420;52.196;21.416;2024-02-04T03:24:58;99523.02;;;5.85;70.70
35307;BME280;21420;52.196;21.416;2024-02-04T03:27:25;99524.75;;;5.86;70.76
35307;BME280;21420;52.196;21.416;2024-02-04T03:29:52;99523.41;;;5.85;70.75
35307;BME280;21420;52.196;21.416;2024-02-04T03:32:20;99524.37;;;5.84;70.78
35307;BME280;21420;52.196;21.416;2024-02-04T03:34:47;99511.61;;;5.83;70.76
35307;BME280;21420;52.196;21.416;2024-02-04T03:37:14;99514.98;;;5.82;70.84
35307;BME280;21420;52.196;21.416;2024-02-04T03:39:41;99521.15;;;5.81;70.97
35307;BME280;21420;52.196;21.416;2024-02-04T03:42:08;99521.98;;;5.80;70.83
35307;BME280;21420;52.196;21.416;2024-02-04T03:44:35;99526.46;;;5.81;71.04
35307;BME280;21420;52.196;21.416;2024-02-04T03:47:01;99526.99;;;5.85;71.05
35307;BME280;21420;52.196;21.416;2024-02-04T03:49:30;99529.70;;;5.87;71.05
35307;BME280;21420;52.196;21.416;2024-02-04T03:51:58;99533.31;;;5.86;71.02
35307;BME280;21420;52.196;21.416;2024-02-04T03:54:24;99529.41;;;5.88;70.95
35307;BME280;21420;52.196;21.416;2024-02-04T03:56:52;99536.77;;;5.91;71.07
35307;BME280;21420;52.196;21.416;2024-02-04T03:59:19;99532.19;;;5.94;71.09
35307;BME280;21420;52.196;21.416;2024-02-04T04:01:49;99551.14;;;5.98;71.15
35307;BME280;21420;52.196;21.416;2024-02-04T04:04:16;99555.39;;;5.99;71.13
35307;BME280;21420;52.196;21.416;2024-02-04T04:06:45;99556.77;;;5.94;70.80
35307;BME280;21420;52.196;21.416;2024-02-04T04:09:12;99567.33;;;5.81;70.76
35307;BME280;21420;52.196;21.416;2024-02-04T04:11:39;99558.11;;;5.74;70.96
35307;BME280;21420;52.196;21.416;2024-02-04T04:14:06;99556.01;;;5.79;70.96
35307;BME280;21420;52.196;21.416;2024-02-04T04:16:33;99556.07;;;5.87;71.07
35307;BME280;21420;52.196;21.416;2024-02-04T04:18:59;99558.71;;;5.92;71.20
35307;BME280;21420;52.196;21.416;2024-02-04T04:21:26;99556.52;;;5.93;71.10
35307;BME280;21420;52.196;21.416;2024-02-04T04:23:53;99539.96;;;5.96;71.22
35307;BME280;21420;52.196;21.416;2024-02-04T04:26:20;99548.49;;;6.03;71.32
35307;BME280;21420;52.196;21.416;2024-02-04T04:28:46;99549.73;;;6.07;71.15
35307;BME280;21420;52.196;21.416;2024-02-04T04:31:13;99535.91;;;6.11;71.12
35307;BME280;21420;52.196;21.416;2024-02-04T04:33:40;99547.97;;;6.14;71.04
35307;BME280;21420;52.196;21.416;2024-02-04T04:36:07;99554.05;;;6.16;71.11
35307;BME280;21420;52.196;21.416;2024-02-04T04:38:34;99554.81;;;6.16;70.92
35307;BME280;21420;52.196;21.416;2024-02-04T04:41:01;99556.89;;;6.17;71.00
35307;BME280;21420;52.196;21.416;2024-02-04T04:43:28;99549.15;;;6.19;71.04
35307;BME280;21420;52.196;21.416;2024-02-04T04:45:55;99558.17;;;6.22;71.01
35307;BME280;21420;52.196;21.416;2024-02-04T04:48:21;99547.88;;;6.23;70.98
35307;BME280;21420;52.196;21.416;2024-02-04T04:50:48;99539.89;;;6.23;70.95
35307;BME280;21420;52.196;21.416;2024-02-04T04:53:15;99539.55;;;6.20;70.79
35307;BME280;21420;52.196;21.416;2024-02-04T04:55:42;99540.30;;;6.16;70.64
35307;BME280;21420;52.196;21.416;2024-02-04T04:58:08;99544.56;;;6.15;70.73
35307;BME280;21420;52.196;21.416;2024-02-04T05:00:35;99555.81;;;6.13;70.68
35307;BME280;21420;52.196;21.416;2024-02-04T05:03:02;99554.77;;;6.12;70.65
35307;BME280;21420;52.196;21.416;2024-02-04T05:05:29;99561.21;;;6.13;70.70
35307;BME280;21420;52.196;21.416;2024-02-04T05:07:56;99556.61;;;6.12;70.57
35307;BME280;21420;52.196;21.416;2024-02-04T05:10:23;99557.73;;;6.15;70.67
35307;BME280;21420;52.196;21.416;2024-02-04T05:12:49;99548.77;;;6.16;70.69
35307;BME280;21420;52.196;21.416;2024-02-04T05:15:16;99544.89;;;6.18;70.57
35307;BME280;21420;52.196;21.416;2024-02-04T05:17:43;99550.83;;;6.15;70.34
35307;BME280;21420;52.196;21.416;2024-02-04T05:20:10;99544.70;;;6.11;70.50
35307;BME280;21420;52.196;21.416;2024-02-04T05:22:37;99547.98;;;6.12;70.61
35307;BME280;21420;52.196;21.416;2024-02-04T05:25:04;99562.38;;;6.14;70.61
35307;BME280;21420;52.196;21.416;2024-02-04T05:27:33;99562.34;;;6.14;70.45
35307;BME280;21420;52.196;21.416;2024-02-04T05:30:01;99597.44;;;6.11;70.20
35307;BME280;21420;52.196;21.416;2024-02-04T05:32:28;99589.38;;;5.99;69.97
35307;BME280;21420;52.196;21.416;2024-02-04T05:34:55;99579.30;;;5.74;69.69
35307;BME280;21420;52.196;21.416;2024-02-04T05:37:22;99584.48;;;5.52;69.51
35307;BME280;21420;52.196;21.416;2024-02-04T05:39:49;99585.73;;;5.35;69.57
35307;BME280;21420;52.196;21.416;2024-02-04T05:42:16;99588.73;;;5.24;69.66
35307;BME280;21420;52.196;21.416;2024-02-04T05:44:42;99592.44;;;5.16;69.67
35307;BME280;21420;52.196;21.416;2024-02-04T05:47:09;99591.83;;;5.13;70.11
35307;BME280;21420;52.196;21.416;2024-02-04T05:49:36;99602.63;;;5.14;70.00
35307;BME280;21420;52.196;21.416;2024-02-04T05:52:03;99607.23;;;5.12;69.95
35307;BME280;21420;52.196;21.416;2024-02-04T05:54:30;99594.58;;;5.14;70.15
35307;BME280;21420;52.196;21.416;2024-02-04T05:56:57;99591.31;;;5.14;70.10
35307;BME280;21420;52.196;21.416;2024-02-04T05:59:23;99584.55;;;5.14;70.13
35307;BME280;21420;52.196;21.416;2024-02-04T06:01:50;99583.55;;;5.14;70.35
35307;BME280;21420;52.196;21.416;2024-02-04T06:04:17;99580.19;;;5.09;70.09
35307;BME280;21420;52.196;21.416;2024-02-04T06:06:44;99575.33;;;5.05;70.07
35307;BME280;21420;52.196;21.416;2024-02-04T06:09:10;99575.29;;;5.02;69.97
35307;BME280;21420;52.196;21.416;2024-02-04T06:11:37;99575.45;;;5.01;70.05
35307;BME280;21420;52.196;21.416;2024-02-04T06:14:04;99564.17;;;4.98;69.98
35307;BME280;21420;52.196;21.416;2024-02-04T06:16:30;99568.20;;;4.96;70.02
35307;BME280;21420;52.196;21.416;2024-02-04T06:18:57;99572.25;;;4.95;70.08
35307;BME280;21420;52.196;21.416;2024-02-04T06:21:25;99566.12;;;4.93;70.02
35307;BME280;21420;52.196;21.416;2024-02-04T06:23:52;99570.98;;;4.92;69.92
35307;BME280;21420;52.196;21.416;2024-02-04T06:26:18;99566.05;;;4.87;70.02
35307;BME280;21420;52.196;21.416;2024-02-04T06:28:45;99567.55;;;4.87;70.12
35307;BME280;21420;52.196;21.416;2024-02-04T06:31:13;99584.63;;;4.88;69.87
35307;BME280;21420;52.196;21.416;2024-02-04T06:33:40;99580.70;;;4.85;69.89
35307;BME280;21420;52.196;21.416;2024-02-04T06:36:10;99579.28;;;4.81;69.95
35307;BME280;21420;52.196;21.416;2024-02-04T06:38:38;99570.02;;;4.77;69.79
35307;BME280;21420;52.196;21.416;2024-02-04T06:41:04;99569.19;;;4.76;69.83
35307;BME280;21420;52.196;21.416;2024-02-04T06:43:31;99568.48;;;4.76;69.79
35307;BME280;21420;52.196;21.416;2024-02-04T06:46:02;99574.91;;;4.75;69.83
35307;BME280;21420;52.196;21.416;2024-02-04T06:48:29;99569.89;;;4.76;69.94
35307;BME280;21420;52.196;21.416;2024-02-04T06:50:56;99574.42;;;4.77;69.96
35307;BME280;21420;52.196;21.416;2024-02-04T06:53:23;99581.19;;;4.79;70.03
35307;BME280;21420;52.196;21.416;2024-02-04T06:55:49;99582.46;;;4.82;69.93
35307;BME280;21420;52.196;21.416;2024-02-04T06:58:16;99580.08;;;4.82;69.94
35307;BME280;21420;52.196;21.416;2024-02-04T07:00:43;99569.02;;;4.84;69.97
35307;BME280;21420;52.196;21.416;2024-02-04T07:03:10;99587.16;;;4.86;69.91
35307;BME280;21420;52.196;21.416;2024-02-04T07:05:37;99588.58;;;4.88;69.90
35307;BME280;21420;52.196;21.416;2024-02-04T07:08:04;99597.65;;;4.93;69.92
35307;BME280;21420;52.196;21.416;2024-02-04T07:10:31;99593.61;;;4.97;69.99
35307;BME280;21420;52.196;21.416;2024-02-04T07:12:57;99590.89;;;5.03;70.01
35307;BME280;21420;52.196;21.416;2024-02-04T07:15:24;99595.59;;;5.09;69.89
35307;BME280;21420;52.196;21.416;2024-02-04T07:17:51;99603.08;;;5.15;69.95
35307;BME280;21420;52.196;21.416;2024-02-04T07:20:18;99605.05;;;5.26;70.12
35307;BME280;21420;52.196;21.416;2024-02-04T07:22:46;99606.88;;;5.36;70.01
35307;BME280;21420;52.196;21.416;2024-02-04T07:25:13;99614.01;;;5.40;69.96
35307;BME280;21420;52.196;21.416;2024-02-04T07:27:40;99614.96;;;5.45;70.07
35307;BME280;21420;52.196;21.416;2024-02-04T07:30:07;99611.70;;;5.48;70.04
35307;BME280;21420;52.196;21.416;2024-02-04T07:32:34;99612.72;;;5.50;70.02
35307;BME280;21420;52.196;21.416;2024-02-04T07:35:04;99610.14;;;5.51;69.91
35307;BME280;21420;52.196;21.416;2024-02-04T07:37:32;99605.34;;;5.55;69.93
35307;BME280;21420;52.196;21.416;2024-02-04T07:39:59;99606.01;;;5.63;70.05
35307;BME280;21420;52.196;21.416;2024-02-04T07:42:27;99603.16;;;5.99;70.54
35307;BME280;21420;52.196;21.416;2024-02-04T07:44:54;99603.79;;;6.39;70.60
35307;BME280;21420;52.196;21.416;2024-02-04T07:47:21;99604.67;;;6.42;70.18
35307;BME280;21420;52.196;21.416;2024-02-04T07:49:48;99603.80;;;6.38;69.85
35307;BME280;21420;52.196;21.416;2024-02-04T07:52:16;99598.08;;;6.27;69.67
35307;BME280;21420;52.196;21.416;2024-02-04T07:54:43;99593.27;;;6.14;69.49
35307;BME280;21420;52.196;21.416;2024-02-04T07:57:10;99589.34;;;6.03;69.60
35307;BME280;21420;52.196;21.416;2024-02-04T07:59:37;99591.96;;;6.03;69.73
35307;BME280;21420;52.196;21.416;2024-02-04T08:02:03;99596.69;;;6.04;69.54
35307;BME280;21420;52.196;21.416;2024-02-04T08:04:31;99598.73;;;5.99;69.53
35307;BME280;21420;52.196;21.416;2024-02-04T08:06:58;99597.47;;;5.96;69.72
35307;BME280;21420;52.196;21.416;2024-02-04T08:09:25;99602.70;;;5.93;69.75
35307;BME280;21420;52.196;21.416;2024-02-04T08:11:51;99597.40;;;5.91;69.70
35307;BME280;21420;52.196;21.416;2024-02-04T08:14:20;99602.11;;;5.88;69.75
35307;BME280;21420;52.196;21.416;2024-02-04T08:16:46;99585.86;;;5.84;69.58
35307;BME280;21420;52.196;21.416;2024-02-04T08:19:15;99585.98;;;5.79;69.45
35307;BME280;21420;52.196;21.416;2024-02-04T08:21:42;99600.52;;;5.75;69.61
35307;BME280;21420;52.196;21.416;2024-02-04T08:24:09;99600.50;;;5.71;69.53
35307;BME280;21420;52.196;21.416;2024-02-04T08:26:35;99596.93;;;5.63;69.53
35307;BME280;21420;52.196;21.416;2024-02-04T08:29:02;99594.38;;;5.58;69.73
35307;BME280;21420;52.196;21.416;2024-02-04T08:31:31;99596.75;;;5.57;69.65
35307;BME280;21420;52.196;21.416;2024-02-04T08:33:58;99589.87;;;5.60;69.72
35307;BME280;21420;52.196;21.416;2024-02-04T08:36:25;99589.73;;;5.61;69.72
35307;BME280;21420;52.196;21.416;2024-02-04T08:38:52;99595.42;;;5.59;69.65
35307;BME280;21420;52.196;21.416;2024-02-04T08:41:19;99586.55;;;5.57;69.54
35307;BME280;21420;52.196;21.416;2024-02-04T08:43:45;99583.41;;;5.55;69.47
35307;BME280;21420;52.196;21.416;2024-02-04T08:46:12;99590.14;;;5.52;69.55
35307;BME280;21420;52.196;21.416;2024-02-04T08:48:41;99597.67;;;5.49;69.60
35307;BME280;21420;52.196;21.416;2024-02-04T08:51:12;99595.65;;;5.47;69.66
35307;BME280;21420;52.196;21.416;2024-02-04T08:53:40;99584.36;;;5.48;69.80
35307;BME280;21420;52.196;21.416;2024-02-04T08:56:07;99585.16;;;5.48;69.76
35307;BME280;21420;52.196;21.416;2024-02-04T08:58:36;99590.71;;;5.48;69.66
35307;BME280;21420;52.196;21.416;2024-02-04T09:01:04;99597.40;;;5.46;69.68
35307;BME280;21420;52.196;21.416;2024-02-04T09:03:32;99592.23;;;5.47;69.85
35307;BME280;21420;52.196;21.416;2024-02-04T09:06:00;99595.18;;;5.47;69.80
35307;BME280;21420;52.196;21.416;2024-02-04T09:08:27;99600.82;;;5.48;69.55
35307;BME280;21420;52.196;21.416;2024-02-04T09:10:54;99602.95;;;5.45;69.70
35307;BME280;21420;52.196;21.416;2024-02-04T09:13:21;99596.70;;;5.42;69.67
35307;BME280;21420;52.196;21.416;2024-02-04T09:15:50;99610.46;;;5.41;69.62
35307;BME280;21420;52.196;21.416;2024-02-04T09:18:16;99607.39;;;5.40;69.52
35307;BME280;21420;52.196;21.416;2024-02-04T09:20:44;99594.00;;;5.39;69.64
35307;BME280;21420;52.196;21.416;2024-02-04T09:23:11;99597.73;;;5.39;69.58
35307;BME280;21420;52.196;21.416;2024-02-04T09:25:38;99597.66;;;5.39;69.73
35307;BME280;21420;52.196;21.416;2024-02-04T09:28:05;99591.33;;;5.40;69.74
35307;BME280;21420;52.196;21.416;2024-02-04T09:30:32;99585.66;;;5.42;69.78
35307;BME280;21420;52.196;21.416;2024-02-04T09:32:59;99594.39;;;5.42;69.80
35307;BME280;21420;52.196;21.416;2024-02-04T09:35:26;99597.16;;;5.44;69.68
35307;BME280;21420;52.196;21.416;2024-02-04T09:37:53;99599.28;;;5.46;69.74
35307;BME280;21420;52.196;21.416;2024-02-04T09:40:21;99590.56;;;5.47;69.79
35307;BME280;21420;52.196;21.416;2024-02-04T09:42:48;99603.84;;;5.50;69.73
35307;BME280;21420;52.196;21.416;2024-02-04T09:45:16;99609.11;;;5.53;69.74
35307;BME280;21420;52.196;21.416;2024-02-04T09:47:45;99580.96;;;5.57;69.59
35307;BME280;21420;52.196;21.416;2024-02-04T09:50:13;99592.05;;;5.56;69.60
35307;BME280;21420;52.196;21.416;2024-02-04T09:52:49;99592.08;;;5.57;69.63
35307;BME280;21420;52.196;21.416;2024-02-04T09:55:17;99588.42;;;5.61;69.53
35307;BME280;21420;52.196;21.416;2024-02-04T09:57:46;99584.08;;;5.66;69.81
35307;BME280;21420;52.196;21.416;2024-02-04T10:00:13;99580.34;;;5.69;69.81
35307;BME280;21420;52.196;21.416;2024-02-04T10:02:41;99571.42;;;5.73;69.85
35307;BME280;21420;52.196;21.416;2024-02-04T10:05:08;99580.46;;;5.70;69.71
35307;BME280;21420;52.196;21.416;2024-02-04T10:07:37;99569.63;;;5.66;69.63
35307;BME280;21420;52.196;21.416;2024-02-04T10:10:06;99568.86;;;5.64;69.66
35307;BME280;21420;52.196;21.416;2024-02-04T10:12:34;99574.17;;;5.63;69.55
35307;BME280;21420;52.196;21.416;2024-02-04T10:15:02;99568.77;;;5.63;69.53
35307;BME280;21420;52.196;21.416;2024-02-04T10:17:32;99559.80;;;5.62;69.49
35307;BME280;21420;52.196;21.416;2024-02-04T10:20:00;99559.91;;;5.59;69.47
35307;BME280;21420;52.196;21.416;2024-02-04T10:22:27;99548.72;;;5.59;69.49
35307;BME280;21420;52.196;21.416;2024-02-04T10:25:10;99539.06;;;5.60;69.61
35307;BME280;21420;52.196;21.416;2024-02-04T10:27:41;99539.95;;;5.61;69.68
35307;BME280;21420;52.196;21.416;2024-02-04T10:30:09;99533.02;;;5.62;69.67
35307;BME280;21420;52.196;21.416;2024-02-04T10:32:36;99525.80;;;5.64;69.66
35307;BME280;21420;52.196;21.416;2024-02-04T10:35:03;99512.22;;;5.64;69.48
35307;BME280;21420;52.196;21.416;2024-02-04T10:37:30;99513.27;;;5.62;69.55
35307;BME280;21420;52.196;21.416;2024-02-04T10:39:57;99514.38;;;5.64;69.71
35307;BME280;21420;52.196;21.416;2024-02-04T10:42:26;99512.56;;;5.89;70.21
35307;BME280;21420;52.196;21.416;2024-02-04T10:44:54;99511.77;;;6.27;70.72
35307;BME280;21420;52.196;21.416;2024-02-04T10:47:22;99511.00;;;6.47;70.39
35307;BME280;21420;52.196;21.416;2024-02-04T10:49:51;99502.91;;;6.51;70.28
35307;BME280;21420;52.196;21.416;2024-02-04T10:52:20;99496.59;;;6.64;70.22
35307;BME280;21420;52.196;21.416;2024-02-04T10:54:49;99490.60;;;6.68;70.05
35307;BME280;21420;52.196;21.416;2024-02-04T10:57:20;99495.92;;;6.67;69.79
35307;BME280;21420;52.196;21.416;2024-02-04T10:59:51;99478.91;;;6.65;69.75
35307;BME280;21420;52.196;21.416;2024-02-04T11:02:19;99467.24;;;6.63;69.80
35307;BME280;21420;52.196;21.416;2024-02-04T11:04:48;99475.56;;;6.72;70.00
35307;BME280;21420;52.196;21.416;2024-02-04T11:07:17;99481.05;;;6.60;69.57
35307;BME280;21420;52.196;21.416;2024-02-04T11:09:48;99486.51;;;6.64;69.77
35307;BME280;21420;52.196;21.416;2024-02-04T11:12:18;99478.20;;;6.61;69.47
35307;BME280;21420;52.196;21.416;2024-02-04T11:14:51;99479.86;;;6.70;69.64
35307;BME280;21420;52.196;21.416;2024-02-04T11:17:38;99477.45;;;6.85;69.99
35307;BME280;21420;52.196;21.416;2024-02-04T11:20:27;99475.48;;;6.91;69.94
35307;BME280;21420;52.196;21.416;2024-02-04T11:23:33;99479.33;;;6.83;69.43
35307;BME280;21420;52.196;21.416;2024-02-04T11:26:06;99470.73;;;6.63;69.15
35307;BME280;21420;52.196;21.416;2024-02-04T11:28:33;99472.38;;;6.37;68.79
35307;BME280;21420;52.196;21.416;2024-02-04T11:31:01;99475.13;;;6.16;68.60
35307;BME280;21420;52.196;21.416;2024-02-04T11:33:28;99469.69;;;6.00;68.71
35307;BME280;21420;52.196;21.416;2024-02-04T11:36:14;99468.25;;;5.88;68.72
35307;BME280;21420;52.196;21.416;2024-02-04T11:38:48;99461.67;;;5.79;68.78
35307;BME280;21420;52.196;21.416;2024-02-04T11:41:23;99467.54;;;5.74;68.78
35307;BME280;21420;52.196;21.416;2024-02-04T11:43:56;99467.20;;;5.70;68.97
35307;BME280;21420;52.196;21.416;2024-02-04T11:46:30;99461.89;;;5.63;69.00
35307;BME280;21420;52.196;21.416;2024-02-04T11:49:00;99455.30;;;5.58;69.02
35307;BME280;21420;52.196;21.416;2024-02-04T11:51:27;99451.23;;;5.53;68.97
35307;BME280;21420;52.196;21.416;2024-02-04T11:54:00;99452.58;;;5.48;69.12
35307;BME280;21420;52.196;21.416;2024-02-04T11:56:29;99454.45;;;5.43;69.03
35307;BME280;21420;52.196;21.416;2024-02-04T11:58:56;99456.92;;;5.39;69.07
35307;BME280;21420;52.196;21.416;2024-02-04T12:01:23;99457.67;;;5.34;69.20
35307;BME280;21420;52.196;21.416;2024-02-04T12:03:51;99448.91;;;5.31;69.16
35307;BME280;21420;52.196;21.416;2024-02-04T12:06:19;99451.21;;;5.27;69.20
35307;BME280;21420;52.196;21.416;2024-02-04T12:08:46;99445.39;;;5.23;69.28
35307;BME280;21420;52.196;21.416;2024-02-04T12:11:14;99443.09;;;5.20;69.23
35307;BME280;21420;52.196;21.416;2024-02-04T12:13:41;99444.41;;;5.18;69.30
35307;BME280;21420;52.196;21.416;2024-02-04T12:16:09;99434.70;;;5.14;69.50
35307;BME280;21420;52.196;21.416;2024-02-04T12:18:47;99432.34;;;5.14;69.41
35307;BME280;21420;52.196;21.416;2024-02-04T12:21:14;99420.09;;;5.10;69.62
35307;BME280;21420;52.196;21.416;2024-02-04T12:23:41;99417.41;;;5.09;69.60
35307;BME280;21420;52.196;21.416;2024-02-04T12:26:08;99418.98;;;5.06;69.62
35307;BME280;21420;52.196;21.416;2024-02-04T12:32:04;99412.73;;;4.97;69.58
35307;BME280;21420;52.196;21.416;2024-02-04T12:34:38;99406.56;;;4.96;69.77
35307;BME280;21420;52.196;21.416;2024-02-04T12:37:04;99392.77;;;4.96;69.81
35307;BME280;21420;52.196;21.416;2024-02-04T12:39:31;99391.95;;;4.97;69.84
35307;BME280;21420;52.196;21.416;2024-02-04T12:42:00;99389.21;;;5.00;69.94
35307;BME280;21420;52.196;21.416;2024-02-04T12:44:27;99387.46;;;5.03;70.08
35307;BME280;21420;52.196;21.416;2024-02-04T12:46:54;99389.20;;;5.06;70.25
35307;BME280;21420;52.196;21.416;2024-02-04T12:49:21;99381.05;;;5.09;70.08
35307;BME280;21420;52.196;21.416;2024-02-04T12:51:49;99369.45;;;5.12;70.35
35307;BME280;21420;52.196;21.416;2024-02-04T12:54:19;99371.02;;;5.15;70.35
35307;BME280;21420;52.196;21.416;2024-02-04T12:56:56;99368.48;;;5.19;70.27
35307;BME280;21420;52.196;21.416;2024-02-04T12:59:30;99362.09;;;5.23;70.45
35307;BME280;21420;52.196;21.416;2024-02-04T13:02:01;99356.81;;;5.24;70.34
35307;BME280;21420;52.196;21.416;2024-02-04T13:04:39;99355.71;;;5.26;70.49
35307;BME280;21420;52.196;21.416;2024-02-04T13:07:07;99356.63;;;5.28;70.50
35307;BME280;21420;52.196;21.416;2024-02-04T13:09:36;99352.10;;;5.29;70.50
35307;BME280;21420;52.196;21.416;2024-02-04T13:12:07;99348.87;;;5.28;70.45
35307;BME280;21420;52.196;21.416;2024-02-04T13:14:38;99345.45;;;5.26;70.50
35307;BME280;21420;52.196;21.416;2024-02-04T13:17:07;99336.65;;;5.25;70.54